Time;durP1;ratioP1;P1;durP2;ratioP2;P2;SDS_P1;SDS_P2;PMS_P1;PMS_P2;Temp;Humidity;BMP_temperature;BMP_pressure;BME280_temperature;BME280_humidity;BME280_pressure;Samples;Min_cycle;Max_cycle;Signal;HPM_P1;HPM_P2
2023/12/08 00:00:02;;;;;;;6.63;5.85;;;;;;;;;;5268903;23;20040;-85
2023/12/08 00:05:26;;;;;;;7.03;5.93;;;;;;;;;;5082143;23;20119;-80
2023/12/08 00:07:52;;;;;;;13.88;8.82;;;;;;;;;;4967206;29;20039;-84
2023/12/08 00:10:18;;;;;;;8.30;6.60;;;;;;;;;;4960502;29;20015;-86
2023/12/08 00:12:45;;;;;;;15.57;9.20;;;;;;;;;;4945064;29;20048;-84
2023/12/08 00:17:54;;;;;;;17.00;12.05;;;;;;;;;;5051359;23;19911;-83
2023/12/08 00:20:20;;;;;;;12.23;10.43;;;;;;;;;;5426011;23;20078;-82
2023/12/08 00:22:46;;;;;;;15.65;10.93;;;;;;;;;;5153222;23;20035;-81
2023/12/08 00:25:12;;;;;;;15.43;11.07;;;;;;;;;;5391459;23;21118;-80
2023/12/08 00:27:38;;;;;;;15.07;10.95;;;;;;;;;;4956697;28;20039;-80
2023/12/08 00:30:05;;;;;;;16.40;10.40;;;;;;;;;;4966449;29;20046;-79
2023/12/08 00:32:33;;;;;;;11.60;6.57;;;;;;;;;;4950015;29;20043;-80
2023/12/08 00:34:59;;;;;;;12.02;8.40;;;;;;;;;;4951901;28;20071;-80
2023/12/08 00:37:25;;;;;;;8.80;6.25;;;;;;;;;;4977832;28;20030;-79
2023/12/08 00:39:51;;;;;;;16.08;10.48;;;;;;;;;;4976782;28;20047;-80
2023/12/08 00:42:18;;;;;;;15.50;10.60;;;;;;;;;;4964985;29;20055;-80
2023/12/08 00:44:44;;;;;;;17.25;11.40;;;;;;;;;;4970802;28;20023;-79
2023/12/08 00:47:11;;;;;;;13.18;8.43;;;;;;;;;;4971503;28;20034;-79
2023/12/08 00:49:37;;;;;;;5.35;4.63;;;;;;;;;;4971314;29;20047;-80
2023/12/08 00:52:03;;;;;;;8.23;5.93;;;;;;;;;;4921569;29;20054;-81
2023/12/08 00:54:29;;;;;;;19.17;10.93;;;;;;;;;;4966823;28;20046;-80
2023/12/08 00:56:55;;;;;;;17.50;11.85;;;;;;;;;;4955705;29;20031;-80
2023/12/08 00:59:21;;;;;;;6.30;5.57;;;;;;;;;;4959256;29;20051;-81
2023/12/08 01:01:48;;;;;;;7.40;5.65;;;;;;;;;;4951425;29;20034;-80
2023/12/08 01:04:14;;;;;;;12.90;8.75;;;;;;;;;;4976224;28;20023;-81
2023/12/08 01:06:40;;;;;;;6.57;5.95;;;;;;;;;;4965931;29;20058;-81
2023/12/08 01:09:06;;;;;;;16.13;10.35;;;;;;;;;;4951065;29;20067;-79
2023/12/08 01:11:32;;;;;;;10.50;7.97;;;;;;;;;;5191379;23;20035;-79
2023/12/08 01:16:54;;;;;;;12.13;9.25;;;;;;;;;;5299950;23;20258;-83
2023/12/08 01:19:21;;;;;;;10.80;7.20;;;;;;;;;;5802437;23;20824;-83
2023/12/08 01:27:15;;;;;;;8.73;7.35;;;;;;;;;;5479895;23;20040;-87
2023/12/08 01:32:37;;;;;;;8.45;5.72;;;;;;;;;;5105306;23;20119;-81
2023/12/08 01:35:03;;;;;;;17.88;12.45;;;;;;;;;;4920997;29;20047;-79
2023/12/08 01:37:30;;;;;;;7.97;6.18;;;;;;;;;;4919953;29;20047;-82
2023/12/08 01:39:56;;;;;;;13.48;9.27;;;;;;;;;;4891389;29;20036;-80
2023/12/08 01:42:22;;;;;;;12.02;8.77;;;;;;;;;;4935400;29;20039;-82
2023/12/08 01:44:49;;;;;;;11.25;7.57;;;;;;;;;;4930693;29;20043;-81
2023/12/08 01:47:15;;;;;;;8.13;5.65;;;;;;;;;;4937162;29;20018;-81
2023/12/08 01:49:41;;;;;;;19.33;12.68;;;;;;;;;;4922039;29;20143;-80
2023/12/08 01:52:07;;;;;;;17.52;12.18;;;;;;;;;;4936963;29;20043;-79
2023/12/08 01:54:33;;;;;;;5.22;4.80;;;;;;;;;;4935667;29;20067;-79
2023/12/08 01:57:00;;;;;;;8.52;7.07;;;;;;;;;;4918930;29;20052;-82
2023/12/08 01:59:26;;;;;;;12.20;9.38;;;;;;;;;;4918084;29;20031;-81
2023/12/08 02:01:52;;;;;;;18.77;13.10;;;;;;;;;;4911946;29;20032;-80
2023/12/08 02:04:18;;;;;;;12.60;9.52;;;;;;;;;;4928859;29;20064;-80
2023/12/08 02:06:44;;;;;;;18.92;10.55;;;;;;;;;;4935529;29;20036;-81
2023/12/08 02:09:10;;;;;;;17.08;10.75;;;;;;;;;;4935012;29;20032;-82
2023/12/08 02:11:36;;;;;;;15.18;10.65;;;;;;;;;;4919457;29;20072;-81
2023/12/08 02:14:02;;;;;;;9.80;5.55;;;;;;;;;;4921346;29;20016;-83
2023/12/08 02:16:48;;;;;;;6.03;5.53;;;;;;;;;;4924186;29;20064;-81
2023/12/08 02:19:14;;;;;;;9.98;6.45;;;;;;;;;;4936495;29;20055;-80
2023/12/08 02:21:40;;;;;;;16.77;11.23;;;;;;;;;;4918167;29;20151;-80
2023/12/08 02:24:06;;;;;;;19.70;13.30;;;;;;;;;;4918627;29;20068;-80
2023/12/08 02:26:32;;;;;;;18.90;11.07;;;;;;;;;;4918537;29;20044;-80
2023/12/08 02:28:58;;;;;;;9.82;7.38;;;;;;;;;;4898018;29;20037;-81
2023/12/08 02:31:26;;;;;;;18.55;13.50;;;;;;;;;;4915010;29;20080;-78
2023/12/08 02:33:53;;;;;;;20.45;12.25;;;;;;;;;;4915140;29;20036;-82
2023/12/08 02:36:19;;;;;;;12.38;8.73;;;;;;;;;;4918254;29;20055;-82
2023/12/08 02:38:46;;;;;;;19.17;13.38;;;;;;;;;;4886966;29;20056;-79
2023/12/08 02:41:12;;;;;;;9.27;8.20;;;;;;;;;;4899370;29;20040;-82
2023/12/08 02:43:38;;;;;;;17.23;11.88;;;;;;;;;;4916389;29;20036;-80
2023/12/08 02:46:04;;;;;;;9.98;8.00;;;;;;;;;;4901748;29;20039;-77
2023/12/08 02:48:30;;;;;;;9.88;7.15;;;;;;;;;;4913653;29;20043;-81
2023/12/08 02:50:56;;;;;;;10.15;5.60;;;;;;;;;;4913903;29;20048;-79
2023/12/08 02:53:22;;;;;;;8.30;5.95;;;;;;;;;;4916437;29;20056;-81
2023/12/08 02:55:48;;;;;;;13.80;10.00;;;;;;;;;;4898305;29;20031;-80
2023/12/08 02:58:14;;;;;;;10.50;6.35;;;;;;;;;;4911192;29;20088;-81
2023/12/08 03:00:40;;;;;;;7.25;6.05;;;;;;;;;;4911812;29;20051;-80
2023/12/08 03:03:06;;;;;;;22.52;12.52;;;;;;;;;;4895569;29;20025;-79
2023/12/08 03:05:32;;;;;;;8.05;6.38;;;;;;;;;;4911868;29;20047;-81
2023/12/08 03:07:58;;;;;;;9.48;6.13;;;;;;;;;;4914715;29;20060;-80
2023/12/08 03:10:24;;;;;;;7.70;6.43;;;;;;;;;;4916360;29;20088;-80
2023/12/08 03:12:50;;;;;;;17.30;11.80;;;;;;;;;;4917412;29;20060;-80
2023/12/08 03:15:16;;;;;;;10.90;6.32;;;;;;;;;;4886242;29;20005;-80
2023/12/08 03:17:42;;;;;;;6.15;5.70;;;;;;;;;;4913322;29;20028;-81
2023/12/08 03:20:08;;;;;;;12.65;9.27;;;;;;;;;;4900099;29;20024;-81
2023/12/08 03:22:34;;;;;;;6.45;4.57;;;;;;;;;;4916829;29;20099;-82
2023/12/08 03:25:00;;;;;;;16.23;11.18;;;;;;;;;;4916667;29;20068;-81
2023/12/08 03:27:26;;;;;;;9.32;7.22;;;;;;;;;;4903345;29;20005;-78
2023/12/08 03:29:52;;;;;;;13.05;8.90;;;;;;;;;;4916238;29;20068;-81
2023/12/08 03:32:18;;;;;;;8.55;7.18;;;;;;;;;;4914122;29;20073;-80
2023/12/08 03:34:44;;;;;;;14.70;9.95;;;;;;;;;;4882552;29;20048;-79
2023/12/08 03:37:10;;;;;;;9.27;7.32;;;;;;;;;;4914208;29;20029;-81
2023/12/08 03:39:36;;;;;;;6.82;4.13;;;;;;;;;;4916323;29;20051;-82
2023/12/08 03:42:02;;;;;;;11.15;5.90;;;;;;;;;;4916641;29;20048;-80
2023/12/08 03:44:28;;;;;;;13.60;9.05;;;;;;;;;;4919003;29;20028;-79
2023/12/08 03:46:53;;;;;;;6.20;5.22;;;;;;;;;;4918495;29;20052;-81
2023/12/08 03:49:19;;;;;;;16.20;11.20;;;;;;;;;;4918325;29;20032;-81
2023/12/08 03:51:46;;;;;;;5.00;4.45;;;;;;;;;;4901328;29;20048;-80
2023/12/08 03:54:12;;;;;;;10.90;7.40;;;;;;;;;;4915676;29;20033;-80
2023/12/08 03:56:38;;;;;;;6.65;6.10;;;;;;;;;;4911054;29;20139;-80
2023/12/08 03:59:03;;;;;;;6.75;6.03;;;;;;;;;;4909102;29;20407;-80
2023/12/08 04:01:29;;;;;;;10.07;7.82;;;;;;;;;;4918554;23;20071;-80
2023/12/08 04:03:56;;;;;;;5.60;4.78;;;;;;;;;;4915250;29;20060;-81
2023/12/08 04:06:22;;;;;;;5.03;4.32;;;;;;;;;;4931904;29;21028;-80
2023/12/08 04:17:24;;;;;;;19.20;12.00;;;;;;;;;;5135593;23;21755;31
2023/12/08 04:19:50;;;;;;;14.18;9.63;;;;;;;;;;5129300;23;20059;-84
2023/12/08 04:22:16;;;;;;;16.65;10.55;;;;;;;;;;4949797;29;20052;-81
2023/12/08 04:27:38;;;;;;;6.82;5.40;;;;;;;;;;5426168;23;20047;-81
2023/12/08 04:30:05;;;;;;;15.77;10.65;;;;;;;;;;5154819;23;20094;-84
2023/12/08 04:32:31;;;;;;;8.10;6.47;;;;;;;;;;5241096;23;20059;-81
2023/12/08 04:37:53;;;;;;;12.27;7.40;;;;;;;;;;5932880;23;21274;-78
2023/12/08 04:40:19;;;;;;;8.05;5.97;;;;;;;;;;5535134;23;20133;-78
2023/12/08 04:42:45;;;;;;;15.45;10.35;;;;;;;;;;4929588;29;20039;-77
2023/12/08 04:45:13;;;;;;;14.77;9.52;;;;;;;;;;4924338;29;20038;-79
2023/12/08 04:47:40;;;;;;;16.83;8.70;;;;;;;;;;4921545;29;20040;-80
2023/12/08 04:50:06;;;;;;;7.63;4.00;;;;;;;;;;4934225;29;20455;-78
2023/12/08 04:52:32;;;;;;;10.52;6.95;;;;;;;;;;4928500;29;20076;-78
2023/12/08 04:55:00;;;;;;;11.63;9.13;;;;;;;;;;4927603;29;20038;-78
2023/12/08 04:57:26;;;;;;;9.27;6.68;;;;;;;;;;4925129;29;20040;-78
2023/12/08 04:59:53;;;;;;;14.63;7.47;;;;;;;;;;4882212;29;20391;-76
2023/12/08 05:02:19;;;;;;;7.43;6.40;;;;;;;;;;4926449;29;20042;-74
2023/12/08 05:04:45;;;;;;;12.18;8.25;;;;;;;;;;4913383;29;20047;-74
2023/12/08 05:07:11;;;;;;;11.43;8.98;;;;;;;;;;4927750;29;20044;-76
2023/12/08 05:09:37;;;;;;;11.13;8.75;;;;;;;;;;4924399;29;20032;-74
2023/12/08 05:12:03;;;;;;;19.58;13.35;;;;;;;;;;4894000;29;20062;-76
2023/12/08 05:14:29;;;;;;;12.43;9.23;;;;;;;;;;4927280;29;20193;-76
2023/12/08 05:16:55;;;;;;;16.88;10.95;;;;;;;;;;4925298;29;20118;-74
2023/12/08 05:19:21;;;;;;;11.63;5.75;;;;;;;;;;4916479;29;20123;-75
2023/12/08 05:21:47;;;;;;;13.30;10.43;;;;;;;;;;4922557;29;20092;-75
2023/12/08 05:24:13;;;;;;;17.83;11.45;;;;;;;;;;4889022;29;20613;-75
2023/12/08 05:26:39;;;;;;;18.92;11.98;;;;;;;;;;4906187;29;20071;-80
2023/12/08 05:29:05;;;;;;;6.30;5.53;;;;;;;;;;4864941;29;20060;-76
2023/12/08 05:31:31;;;;;;;6.32;5.63;;;;;;;;;;4905913;29;20158;-75
2023/12/08 05:33:57;;;;;;;26.60;11.57;;;;;;;;;;4904719;29;20041;-77
2023/12/08 05:36:23;;;;;;;11.13;5.90;;;;;;;;;;4907229;29;20573;-75
2023/12/08 05:38:49;;;;;;;21.27;14.30;;;;;;;;;;4892352;29;20415;-75
2023/12/08 05:41:16;;;;;;;20.92;13.60;;;;;;;;;;4908115;29;20058;-76
2023/12/08 05:43:42;;;;;;;7.68;5.50;;;;;;;;;;4892372;29;20048;-74
2023/12/08 05:46:08;;;;;;;17.00;11.40;;;;;;;;;;4903994;29;20451;-75
2023/12/08 05:48:34;;;;;;;5.60;5.05;;;;;;;;;;4888132;29;20040;-78
2023/12/08 05:51:00;;;;;;;21.50;13.57;;;;;;;;;;4896633;29;20032;-79
2023/12/08 05:53:26;;;;;;;18.15;11.02;;;;;;;;;;4892168;29;20178;-73
2023/12/08 05:55:52;;;;;;;15.77;9.48;;;;;;;;;;4908363;29;20108;-76
2023/12/08 05:58:18;;;;;;;17.92;11.35;;;;;;;;;;4910880;29;20130;-75
2023/12/08 06:00:44;;;;;;;27.38;14.52;;;;;;;;;;4906908;29;20071;-76
2023/12/08 06:03:10;;;;;;;11.27;7.40;;;;;;;;;;4912228;29;20036;-74
2023/12/08 06:05:36;;;;;;;5.95;4.68;;;;;;;;;;4906304;29;20036;-77
2023/12/08 06:08:02;;;;;;;13.98;9.65;;;;;;;;;;4895945;29;20070;-77
2023/12/08 06:10:28;;;;;;;16.58;9.20;;;;;;;;;;4882662;29;20610;-78
2023/12/08 06:12:55;;;;;;;21.13;12.75;;;;;;;;;;4909818;29;20044;-76
2023/12/08 06:15:21;;;;;;;11.60;7.03;;;;;;;;;;4915877;29;20056;-76
2023/12/08 06:17:47;;;;;;;10.32;8.60;;;;;;;;;;4916703;29;20035;-76
2023/12/08 06:20:14;;;;;;;17.08;11.93;;;;;;;;;;4916238;29;20116;-77
2023/12/08 06:22:40;;;;;;;12.35;7.63;;;;;;;;;;4911417;29;20040;-76
2023/12/08 06:25:07;;;;;;;27.63;18.20;;;;;;;;;;4910939;29;20043;-75
2023/12/08 06:27:33;;;;;;;8.13;6.15;;;;;;;;;;4912631;29;20115;-75
2023/12/08 06:30:02;;;;;;;12.35;8.52;;;;;;;;;;4890832;29;20512;-77
2023/12/08 06:32:30;;;;;;;9.15;6.60;;;;;;;;;;4911383;29;20184;-77
2023/12/08 06:34:57;;;;;;;8.75;7.85;;;;;;;;;;4910024;29;20123;-78
2023/12/08 06:37:23;;;;;;;29.55;18.90;;;;;;;;;;4908243;29;20127;-77
2023/12/08 06:39:49;;;;;;;12.98;8.65;;;;;;;;;;4881081;29;20036;-76
2023/12/08 06:42:15;;;;;;;10.35;7.13;;;;;;;;;;4896112;29;20063;-77
2023/12/08 06:44:41;;;;;;;12.80;7.72;;;;;;;;;;4878978;29;20043;-77
2023/12/08 06:47:08;;;;;;;12.10;7.60;;;;;;;;;;4912530;29;20035;-76
2023/12/08 06:49:34;;;;;;;9.52;8.38;;;;;;;;;;4912189;29;20032;-77
2023/12/08 06:52:00;;;;;;;10.02;6.75;;;;;;;;;;4894317;29;20172;-76
2023/12/08 06:54:26;;;;;;;11.48;8.52;;;;;;;;;;4911372;29;20123;-77
2023/12/08 06:56:52;;;;;;;21.42;11.60;;;;;;;;;;4910216;29;20467;-76
2023/12/08 06:59:18;;;;;;;7.65;6.30;;;;;;;;;;4894012;29;20035;-76
2023/12/08 07:01:44;;;;;;;10.63;7.88;;;;;;;;;;4909560;29;20039;-77
2023/12/08 07:04:10;;;;;;;17.92;11.13;;;;;;;;;;4911546;29;20036;-77
2023/12/08 07:06:39;;;;;;;8.13;7.32;;;;;;;;;;4890073;29;20096;-76
2023/12/08 07:09:07;;;;;;;16.08;10.65;;;;;;;;;;4896643;29;20032;-76
2023/12/08 07:11:33;;;;;;;9.05;6.80;;;;;;;;;;4900709;29;20062;-79
2023/12/08 07:13:59;;;;;;;9.60;7.88;;;;;;;;;;4914794;29;20072;-77
2023/12/08 07:16:25;;;;;;;12.70;9.43;;;;;;;;;;4896027;29;20516;-75
2023/12/08 07:18:51;;;;;;;11.95;6.45;;;;;;;;;;4909824;29;20390;-78
2023/12/08 07:21:17;;;;;;;12.45;6.57;;;;;;;;;;4880743;29;20050;-79
2023/12/08 07:23:44;;;;;;;11.57;9.05;;;;;;;;;;4895473;29;20048;-79
2023/12/08 07:26:10;;;;;;;8.00;6.63;;;;;;;;;;4897022;29;20107;-76
2023/12/08 07:28:36;;;;;;;12.60;8.52;;;;;;;;;;4889261;29;20064;-76
2023/12/08 07:31:03;;;;;;;14.20;9.77;;;;;;;;;;4848191;29;20052;-76
2023/12/08 07:33:29;;;;;;;13.90;7.93;;;;;;;;;;4905584;29;20028;-79
2023/12/08 07:35:55;;;;;;;4.78;4.38;;;;;;;;;;4913587;29;20040;-77
2023/12/08 07:38:21;;;;;;;10.77;7.03;;;;;;;;;;4913116;29;20032;-77
2023/12/08 07:40:47;;;;;;;13.73;9.60;;;;;;;;;;4899260;29;20107;-78
2023/12/08 07:43:13;;;;;;;12.07;9.18;;;;;;;;;;4896673;29;20520;-78
2023/12/08 07:45:39;;;;;;;11.88;6.63;;;;;;;;;;4912902;29;20476;-78
2023/12/08 07:48:05;;;;;;;9.13;7.57;;;;;;;;;;4897391;29;20127;-76
2023/12/08 07:50:31;;;;;;;7.28;6.20;;;;;;;;;;4915624;29;20040;-79
2023/12/08 07:52:57;;;;;;;17.77;13.25;;;;;;;;;;4896855;29;20123;-77
2023/12/08 07:55:24;;;;;;;15.65;8.23;;;;;;;;;;4880075;29;20047;-77
2023/12/08 07:57:50;;;;;;;13.30;10.57;;;;;;;;;;4914446;29;20044;-79
2023/12/08 08:00:16;;;;;;;7.78;6.85;;;;;;;;;;4898849;29;20128;-79
2023/12/08 08:02:43;;;;;;;8.43;6.95;;;;;;;;;;4915044;29;20032;-77
2023/12/08 08:05:13;;;;;;;10.98;8.45;;;;;;;;;;4896275;29;20525;-80
2023/12/08 08:07:39;;;;;;;15.48;10.10;;;;;;;;;;4911134;29;20036;-78
2023/12/08 08:10:05;;;;;;;22.92;15.00;;;;;;;;;;4897585;29;20052;-76
2023/12/08 08:12:33;;;;;;;21.95;10.23;;;;;;;;;;4896705;29;20052;-78
2023/12/08 08:14:59;;;;;;;11.27;7.70;;;;;;;;;;4897780;29;20050;-76
2023/12/08 08:17:26;;;;;;;10.27;7.28;;;;;;;;;;4899184;29;20046;-78
2023/12/08 08:19:52;;;;;;;6.70;6.13;;;;;;;;;;4912460;29;20172;-75
2023/12/08 08:22:18;;;;;;;17.50;12.27;;;;;;;;;;4894985;29;20106;-75
2023/12/08 08:24:44;;;;;;;17.65;11.30;;;;;;;;;;4881314;29;20068;-74
2023/12/08 08:27:10;;;;;;;7.50;6.35;;;;;;;;;;4908860;29;20562;-77
2023/12/08 08:29:36;;;;;;;7.60;6.82;;;;;;;;;;4913257;29;20511;-76
2023/12/08 08:32:02;;;;;;;5.53;4.97;;;;;;;;;;4916596;29;20059;-79
2023/12/08 08:34:29;;;;;;;12.70;9.73;;;;;;;;;;4885873;29;20036;-77
2023/12/08 08:36:56;;;;;;;8.85;7.30;;;;;;;;;;4905683;29;20035;-78
2023/12/08 08:39:22;;;;;;;12.85;9.82;;;;;;;;;;4917556;29;20036;-75
2023/12/08 08:41:49;;;;;;;23.23;12.20;;;;;;;;;;4881975;29;20067;-75
2023/12/08 08:44:15;;;;;;;15.45;10.60;;;;;;;;;;4918862;29;20043;-77
2023/12/08 08:46:41;;;;;;;17.00;8.18;;;;;;;;;;4914259;29;20032;-77
2023/12/08 08:49:08;;;;;;;19.63;11.68;;;;;;;;;;4913880;29;20046;-75
2023/12/08 08:51:34;;;;;;;9.80;7.78;;;;;;;;;;4913897;29;20079;-77
2023/12/08 08:54:00;;;;;;;12.10;9.75;;;;;;;;;;4915641;29;20036;-78
2023/12/08 08:56:26;;;;;;;16.77;11.43;;;;;;;;;;4914236;29;20464;-75
2023/12/08 08:58:53;;;;;;;10.63;7.72;;;;;;;;;;4901220;29;20067;-76
2023/12/08 09:01:19;;;;;;;13.68;12.02;;;;;;;;;;4901939;29;20036;-79
2023/12/08 09:03:45;;;;;;;15.02;11.45;;;;;;;;;;4898048;29;20036;-78
2023/12/08 09:06:11;;;;;;;17.10;11.57;;;;;;;;;;4905070;29;20059;-77
2023/12/08 09:08:37;;;;;;;19.55;12.52;;;;;;;;;;4925716;29;20044;-78
2023/12/08 09:11:03;;;;;;;8.98;8.07;;;;;;;;;;4940406;23;20051;-71
2023/12/08 09:13:29;;;;;;;16.00;9.18;;;;;;;;;;4935243;29;20031;-70
2023/12/08 09:15:55;;;;;;;11.48;8.93;;;;;;;;;;4917860;29;20537;-71
2023/12/08 09:18:21;;;;;;;10.88;8.65;;;;;;;;;;4935494;29;20123;-72
2023/12/08 09:20:47;;;;;;;13.98;10.18;;;;;;;;;;4918155;29;20118;-71
2023/12/08 09:23:13;;;;;;;13.95;10.00;;;;;;;;;;4935449;29;20043;-72
2023/12/08 09:25:39;;;;;;;9.15;7.22;;;;;;;;;;4917496;29;20617;-72
2023/12/08 09:28:05;;;;;;;12.25;7.63;;;;;;;;;;4935599;29;20138;-71
2023/12/08 09:30:31;;;;;;;10.93;7.70;;;;;;;;;;4935444;29;20043;-71
2023/12/08 09:32:57;;;;;;;27.23;17.70;;;;;;;;;;4935380;29;20047;-71
2023/12/08 09:35:23;;;;;;;10.70;8.98;;;;;;;;;;4930658;29;20557;-71
2023/12/08 09:37:49;;;;;;;17.70;11.48;;;;;;;;;;4931274;29;20568;-71
2023/12/08 09:40:15;;;;;;;12.73;7.57;;;;;;;;;;4929202;29;20032;-71
2023/12/08 09:43:05;;;;;;;21.33;15.23;;;;;;;;;;4913189;29;20039;-71
2023/12/08 09:45:31;;;;;;;19.00;10.32;;;;;;;;;;4885205;29;20471;-70
2023/12/08 09:47:57;;;;;;;7.57;6.78;;;;;;;;;;4932700;29;20040;-70
2023/12/08 09:50:23;;;;;;;9.68;7.30;;;;;;;;;;4932616;29;20581;-70
2023/12/08 09:52:49;;;;;;;12.32;7.05;;;;;;;;;;4918286;29;20051;-71
2023/12/08 09:55:15;;;;;;;29.58;18.42;;;;;;;;;;4918371;29;20031;-71
2023/12/08 09:57:45;;;;;;;13.88;9.75;;;;;;;;;;4916212;29;20094;-71
2023/12/08 10:00:13;;;;;;;17.42;11.55;;;;;;;;;;4934519;29;20161;-72
2023/12/08 10:02:40;;;;;;;29.23;17.27;;;;;;;;;;4932901;29;20091;-71
2023/12/08 10:05:07;;;;;;;7.28;6.43;;;;;;;;;;4915450;29;20062;-71
2023/12/08 10:07:33;;;;;;;10.40;7.40;;;;;;;;;;4917258;29;20032;-71
2023/12/08 10:09:59;;;;;;;24.60;14.07;;;;;;;;;;4933802;29;20589;-71
2023/12/08 10:12:25;;;;;;;13.15;5.35;;;;;;;;;;4940446;29;20437;-70
2023/12/08 10:14:52;;;;;;;14.10;8.93;;;;;;;;;;4944093;29;20026;-71
2023/12/08 10:17:18;;;;;;;10.95;7.65;;;;;;;;;;4934502;29;20416;-70
2023/12/08 10:19:44;;;;;;;17.30;12.05;;;;;;;;;;4935414;29;20171;-71
2023/12/08 10:22:10;;;;;;;8.20;6.78;;;;;;;;;;4945970;29;20532;-71
2023/12/08 10:24:36;;;;;;;6.40;5.15;;;;;;;;;;4933166;29;20199;-71
2023/12/08 10:27:03;;;;;;;11.15;7.50;;;;;;;;;;4933797;29;20039;-71
2023/12/08 10:29:30;;;;;;;6.10;5.53;;;;;;;;;;4933662;29;20055;-71
2023/12/08 10:31:56;;;;;;;9.10;7.38;;;;;;;;;;4916148;29;20043;-71
2023/12/08 10:34:22;;;;;;;21.60;13.10;;;;;;;;;;4925080;29;20030;-71
2023/12/08 10:36:48;;;;;;;13.80;9.00;;;;;;;;;;4941196;29;20095;-72
2023/12/08 10:39:16;;;;;;;11.57;7.10;;;;;;;;;;4934032;29;20034;-71
2023/12/08 10:41:42;;;;;;;7.28;5.35;;;;;;;;;;4907667;29;20035;-71
2023/12/08 10:44:08;;;;;;;7.45;6.60;;;;;;;;;;4941004;29;20087;-71
2023/12/08 10:46:35;;;;;;;7.13;6.45;;;;;;;;;;4917512;29;20042;-71
2023/12/08 10:49:01;;;;;;;8.80;6.85;;;;;;;;;;4941234;29;20059;-71
2023/12/08 10:51:27;;;;;;;17.02;11.38;;;;;;;;;;4931606;29;20126;-71
2023/12/08 10:53:53;;;;;;;21.10;14.52;;;;;;;;;;4916225;29;20486;-71
2023/12/08 10:56:19;;;;;;;13.98;7.78;;;;;;;;;;4929780;29;20366;-71
2023/12/08 10:58:46;;;;;;;18.70;12.30;;;;;;;;;;4902713;29;20036;-70
2023/12/08 11:01:12;;;;;;;8.38;7.50;;;;;;;;;;4922459;29;20087;-71
2023/12/08 11:03:39;;;;;;;14.27;6.50;;;;;;;;;;4920770;29;20134;-71
2023/12/08 11:06:06;;;;;;;9.27;7.90;;;;;;;;;;4932631;29;20393;-71
2023/12/08 11:08:33;;;;;;;18.48;12.50;;;;;;;;;;4919341;29;20043;-71
2023/12/08 11:10:59;;;;;;;11.27;8.10;;;;;;;;;;4896559;29;20108;-71
2023/12/08 11:13:28;;;;;;;9.73;6.82;;;;;;;;;;4894530;29;20079;-70
2023/12/08 11:15:57;;;;;;;15.57;7.72;;;;;;;;;;4894603;29;20064;-70
2023/12/08 11:18:25;;;;;;;17.75;11.32;;;;;;;;;;4895130;29;20403;-70
2023/12/08 11:20:51;;;;;;;15.32;8.40;;;;;;;;;;4894081;29;20060;-70
2023/12/08 11:23:18;;;;;;;11.05;8.57;;;;;;;;;;4894049;29;20024;-71
2023/12/08 11:25:46;;;;;;;12.38;5.60;;;;;;;;;;4891397;29;20044;-70
2023/12/08 11:28:20;;;;;;;15.40;9.68;;;;;;;;;;4894158;29;20025;-70
2023/12/08 11:30:51;;;;;;;8.15;7.38;;;;;;;;;;4893051;29;20033;-71
2023/12/08 11:33:31;;;;;;;5.05;4.18;;;;;;;;;;4894190;29;20040;-70
2023/12/08 11:36:10;;;;;;;14.88;8.90;;;;;;;;;;4896589;29;20059;-70
2023/12/08 11:38:39;;;;;;;10.00;8.38;;;;;;;;;;4893173;29;20153;-71
2023/12/08 11:41:12;;;;;;;11.30;8.30;;;;;;;;;;4895439;29;20422;-70
2023/12/08 11:43:40;;;;;;;6.07;4.93;;;;;;;;;;4907933;29;20037;-71
2023/12/08 11:46:06;;;;;;;6.22;5.63;;;;;;;;;;4894032;29;20032;-71
2023/12/08 11:48:32;;;;;;;15.60;9.90;;;;;;;;;;4894456;29;20109;-70
2023/12/08 11:50:59;;;;;;;12.18;9.30;;;;;;;;;;4878044;29;20040;-73
2023/12/08 11:53:25;;;;;;;15.35;9.55;;;;;;;;;;4891312;29;20127;-71
2023/12/08 11:55:52;;;;;;;10.80;8.27;;;;;;;;;;4894842;29;20036;-70
2023/12/08 11:58:19;;;;;;;15.88;11.15;;;;;;;;;;4889850;29;20036;-71
2023/12/08 12:00:46;;;;;;;9.40;7.78;;;;;;;;;;4892703;29;20092;-71
2023/12/08 12:03:12;;;;;;;19.30;12.77;;;;;;;;;;4878279;29;20028;-71
2023/12/08 12:05:38;;;;;;;12.30;5.68;;;;;;;;;;4894838;29;20108;-70
2023/12/08 12:08:04;;;;;;;12.57;7.13;;;;;;;;;;4895205;29;20594;-70
2023/12/08 12:10:32;;;;;;;11.95;6.85;;;;;;;;;;4919323;29;20056;-71
2023/12/08 12:13:08;;;;;;;8.07;5.63;;;;;;;;;;4932473;29;20058;-71
2023/12/08 12:15:36;;;;;;;3.97;3.15;;;;;;;;;;4915370;29;20044;-71
2023/12/08 12:18:02;;;;;;;10.85;6.93;;;;;;;;;;4929878;29;20031;-70
2023/12/08 12:20:29;;;;;;;10.60;8.02;;;;;;;;;;4932214;29;20047;-70
2023/12/08 12:22:56;;;;;;;9.82;7.38;;;;;;;;;;4915088;29;20047;-72
2023/12/08 12:25:22;;;;;;;6.53;5.93;;;;;;;;;;4932661;29;20506;-72
2023/12/08 12:27:48;;;;;;;7.07;6.20;;;;;;;;;;4930748;29;20418;-72
2023/12/08 12:30:14;;;;;;;6.95;6.30;;;;;;;;;;4917187;29;20034;-73
2023/12/08 12:32:40;;;;;;;4.32;4.05;;;;;;;;;;4900557;29;20056;-72
2023/12/08 12:35:07;;;;;;;24.13;12.70;;;;;;;;;;4934872;29;20115;-70
2023/12/08 12:37:33;;;;;;;11.25;7.50;;;;;;;;;;4917309;29;20043;-71
2023/12/08 12:39:59;;;;;;;8.63;6.05;;;;;;;;;;4916117;29;20458;-71
2023/12/08 12:42:25;;;;;;;7.97;6.72;;;;;;;;;;4930526;29;20036;-71
2023/12/08 12:44:52;;;;;;;8.57;6.97;;;;;;;;;;4931365;29;20051;-70
2023/12/08 12:47:21;;;;;;;7.57;5.28;;;;;;;;;;4914915;29;20030;-71
2023/12/08 12:50:04;;;;;;;7.53;6.68;;;;;;;;;;4931544;29;20044;-71
2023/12/08 12:52:34;;;;;;;11.90;8.63;;;;;;;;;;4930888;29;20506;-71
2023/12/08 12:55:01;;;;;;;12.95;8.65;;;;;;;;;;4913007;29;20044;-72
2023/12/08 12:57:41;;;;;;;9.30;8.10;;;;;;;;;;4930410;29;20419;-71
2023/12/08 13:00:09;;;;;;;7.43;5.05;;;;;;;;;;4931649;29;20031;-71
2023/12/08 13:02:36;;;;;;;11.35;8.38;;;;;;;;;;4931557;29;20043;-72
2023/12/08 13:05:07;;;;;;;9.88;7.22;;;;;;;;;;4897943;29;20036;-72
2023/12/08 13:07:33;;;;;;;15.43;9.73;;;;;;;;;;4931522;29;20032;-72
2023/12/08 13:09:59;;;;;;;11.35;7.40;;;;;;;;;;4931222;29;20087;-71
2023/12/08 13:12:25;;;;;;;10.85;7.32;;;;;;;;;;4931593;29;20120;-71
2023/12/08 13:14:52;;;;;;;20.33;12.82;;;;;;;;;;4912356;29;20040;-72
2023/12/08 13:17:19;;;;;;;15.55;10.25;;;;;;;;;;4913185;29;20465;-71
2023/12/08 13:19:45;;;;;;;23.02;14.05;;;;;;;;;;4898498;29;20035;-71
2023/12/08 13:22:12;;;;;;;20.70;13.73;;;;;;;;;;4914584;29;20126;-70
2023/12/08 13:24:38;;;;;;;16.42;9.95;;;;;;;;;;4933895;29;20213;-70
2023/12/08 13:27:05;;;;;;;9.73;7.50;;;;;;;;;;4938220;29;20095;-70
2023/12/08 13:29:31;;;;;;;13.70;7.68;;;;;;;;;;4919536;29;20036;-69
2023/12/08 13:31:57;;;;;;;13.60;9.07;;;;;;;;;;4920334;29;20126;-71
2023/12/08 13:34:24;;;;;;;9.70;6.80;;;;;;;;;;4935958;29;20031;-71
2023/12/08 13:36:50;;;;;;;15.85;10.13;;;;;;;;;;4935697;29;20050;-71
2023/12/08 13:39:16;;;;;;;11.02;7.75;;;;;;;;;;4945803;29;20092;-71
2023/12/08 13:41:42;;;;;;;9.05;8.07;;;;;;;;;;4943723;29;20490;-70
2023/12/08 13:44:08;;;;;;;18.15;10.35;;;;;;;;;;4934702;29;20069;-71
2023/12/08 13:46:34;;;;;;;8.40;6.63;;;;;;;;;;4935362;29;20055;-72
2023/12/08 13:49:00;;;;;;;21.70;10.48;;;;;;;;;;4917358;29;20031;-70
2023/12/08 13:51:29;;;;;;;8.70;5.50;;;;;;;;;;4935972;29;20561;-71
2023/12/08 13:53:55;;;;;;;15.38;10.35;;;;;;;;;;4935972;29;20034;-70
2023/12/08 13:56:22;;;;;;;11.10;8.50;;;;;;;;;;4931859;29;20031;-69
2023/12/08 13:58:49;;;;;;;10.52;8.60;;;;;;;;;;4904301;29;20446;-70
2023/12/08 14:01:15;;;;;;;11.70;8.38;;;;;;;;;;4938106;29;20071;-71
2023/12/08 14:03:41;;;;;;;9.50;7.68;;;;;;;;;;4938183;29;20043;-70
2023/12/08 14:06:07;;;;;;;12.80;8.45;;;;;;;;;;4938020;29;20035;-70
2023/12/08 14:08:33;;;;;;;23.13;14.05;;;;;;;;;;4919293;29;20044;-70
2023/12/08 14:10:59;;;;;;;17.05;10.07;;;;;;;;;;4935701;29;20091;-70
2023/12/08 14:13:26;;;;;;;23.05;13.68;;;;;;;;;;4918842;29;20091;-71
2023/12/08 14:15:52;;;;;;;13.15;9.10;;;;;;;;;;4922692;29;20126;-71
2023/12/08 14:18:18;;;;;;;26.67;12.95;;;;;;;;;;4940008;29;20031;-71
2023/12/08 14:20:46;;;;;;;8.32;6.65;;;;;;;;;;4937098;29;20035;-72
2023/12/08 14:23:12;;;;;;;11.88;6.95;;;;;;;;;;4937103;29;20526;-71
2023/12/08 14:25:38;;;;;;;21.33;12.73;;;;;;;;;;4939166;29;20036;-70
2023/12/08 14:28:04;;;;;;;10.02;8.77;;;;;;;;;;4940572;29;20035;-71
2023/12/08 14:30:30;;;;;;;6.43;5.82;;;;;;;;;;4940925;29;20035;-70
2023/12/08 14:32:56;;;;;;;10.13;7.68;;;;;;;;;;4934953;29;20494;-71
2023/12/08 14:35:22;;;;;;;25.17;14.25;;;;;;;;;;4934736;29;20043;-72
2023/12/08 14:37:48;;;;;;;9.00;6.80;;;;;;;;;;4933989;29;20040;-71
2023/12/08 14:40:14;;;;;;;13.63;10.27;;;;;;;;;;4917008;29;20066;-72
2023/12/08 14:42:43;;;;;;;9.63;6.43;;;;;;;;;;4934999;29;20038;-71
2023/12/08 14:45:10;;;;;;;26.17;15.75;;;;;;;;;;4916527;29;20046;-72
2023/12/08 14:47:36;;;;;;;14.18;10.15;;;;;;;;;;4901271;29;20505;-72
2023/12/08 14:50:03;;;;;;;30.30;16.52;;;;;;;;;;4932527;29;20035;-71
2023/12/08 14:52:29;;;;;;;28.20;17.98;;;;;;;;;;4929797;29;20564;-72
2023/12/08 14:54:55;;;;;;;25.25;14.48;;;;;;;;;;4929146;29;20282;-71
2023/12/08 14:57:21;;;;;;;16.02;11.00;;;;;;;;;;4915694;29;20210;-72